Time;durP1;ratioP1;P1;durP2;ratioP2;P2;SDS_P1;SDS_P2;PMS_P1;PMS_P2;Temp;Humidity;BMP_temperature;BMP_pressure;BME280_temperature;BME280_humidity;BME280_pressure;Samples;Min_cycle;Max_cycle;Signal;HPM_P1;HPM_P2
2024/02/13 00:01:42;;;;;;;0.30;0.20;;;11.10;99.90;;;;;;5104749;28;20296;-76
2024/02/13 00:04:10;;;;;;;0.30;0.20;;;11.10;99.90;;;;;;5103327;28;20238;-76
2024/02/13 00:06:36;;;;;;;0.30;0.22;;;11.00;99.90;;;;;;5103590;28;20289;-76
2024/02/13 00:09:02;;;;;;;0.30;0.20;;;11.00;99.90;;;;;;5105277;28;20686;-76
2024/02/13 00:11:28;;;;;;;0.30;0.20;;;11.00;99.90;;;;;;5104397;28;20298;-76
2024/02/13 00:13:53;;;;;;;0.50;0.50;;;11.00;99.90;;;;;;5103494;28;20440;-76
2024/02/13 00:16:20;;;;;;;0.30;0.20;;;11.00;99.90;;;;;;5103465;28;20467;-76
2024/02/13 00:18:52;;;;;;;0.30;0.20;;;10.90;99.90;;;;;;5103150;28;20238;-76
2024/02/13 00:21:18;;;;;;;0.93;0.93;;;10.90;99.90;;;;;;5105121;28;20176;-76
2024/02/13 00:23:44;;;;;;;0.30;0.20;;;10.90;99.90;;;;;;5104873;28;20206;-76
2024/02/13 00:26:10;;;;;;;0.30;0.20;;;10.90;99.90;;;;;;5103211;28;20633;-76
2024/02/13 00:28:39;;;;;;;0.30;0.20;;;10.90;99.90;;;;;;5102500;28;20196;-76
2024/02/13 00:31:05;;;;;;;0.30;0.20;;;10.90;99.90;;;;;;5103018;28;20183;-77
2024/02/13 00:33:32;;;;;;;0.30;0.20;;;10.90;99.90;;;;;;5103231;28;20221;-76
2024/02/13 00:35:57;;;;;;;0.30;0.30;;;10.90;99.90;;;;;;5104642;28;20171;-76
2024/02/13 00:38:24;;;;;;;0.30;0.20;;;10.90;99.90;;;;;;5104738;28;20691;-76
2024/02/13 00:40:49;;;;;;;0.30;0.30;;;10.80;99.90;;;;;;5103305;28;20321;-76
2024/02/13 00:43:19;;;;;;;4.57;4.27;;;10.80;99.90;;;;;;5102889;28;20235;-76
2024/02/13 00:45:46;;;;;;;0.30;0.20;;;10.90;99.90;;;;;;5103264;28;20241;-76
2024/02/13 00:48:12;;;;;;;0.30;0.20;;;10.90;99.90;;;;;;5106056;28;20776;-76
2024/02/13 00:50:38;;;;;;;0.30;0.20;;;10.90;99.90;;;;;;5107097;28;20184;-76
2024/02/13 00:53:05;;;;;;;0.30;0.20;;;10.90;99.90;;;;;;5106455;28;20238;-76
2024/02/13 00:55:31;;;;;;;0.30;0.20;;;10.90;99.90;;;;;;5108538;28;20168;-76
2024/02/13 00:57:57;;;;;;;0.30;0.20;;;10.90;99.90;;;;;;5108187;28;20192;-76
2024/02/13 01:00:24;;;;;;;0.30;0.20;;;10.90;99.90;;;;;;5108414;28;20539;-76
2024/02/13 01:02:50;;;;;;;0.30;0.20;;;10.90;99.90;;;;;;5107723;28;20449;-77
2024/02/13 01:05:16;;;;;;;0.30;0.20;;;11.00;99.90;;;;;;5106791;28;20259;-76
2024/02/13 01:07:42;;;;;;;0.30;0.20;;;11.00;99.90;;;;;;5107687;28;20203;-76
2024/02/13 01:10:09;;;;;;;0.30;0.20;;;11.00;99.90;;;;;;5106732;28;20171;-76
2024/02/13 01:12:35;;;;;;;0.30;0.20;;;11.00;99.90;;;;;;5107787;28;20215;-76
2024/02/13 01:15:01;;;;;;;0.30;0.20;;;11.00;99.90;;;;;;5107978;28;20675;-76
2024/02/13 01:17:28;;;;;;;0.30;0.20;;;11.00;99.90;;;;;;5107484;27;20594;-76
2024/02/13 01:19:54;;;;;;;0.30;0.20;;;11.00;99.90;;;;;;5107940;28;20175;-77
2024/02/13 01:22:20;;;;;;;0.30;0.20;;;11.00;99.90;;;;;;5107834;28;20172;-76
2024/02/13 01:24:46;;;;;;;0.30;0.20;;;11.00;99.90;;;;;;5106224;28;20682;-77
2024/02/13 01:27:13;;;;;;;0.30;0.20;;;11.00;99.90;;;;;;5106850;28;20591;-76
2024/02/13 01:29:39;;;;;;;0.30;0.20;;;11.00;99.90;;;;;;5105486;28;20199;-76
2024/02/13 01:32:05;;;;;;;0.30;0.20;;;11.00;99.90;;;;;;5107370;28;20298;-77
2024/02/13 01:34:30;;;;;;;0.30;0.20;;;11.00;99.90;;;;;;5107606;28;20199;-77
2024/02/13 01:36:57;;;;;;;0.30;0.20;;;11.00;99.90;;;;;;5107482;28;20422;-75
2024/02/13 01:39:24;;;;;;;0.30;0.20;;;11.00;99.90;;;;;;5106028;28;20222;-76
2024/02/13 01:41:50;;;;;;;0.30;0.20;;;11.00;99.90;;;;;;5107311;28;20176;-76
2024/02/13 01:44:16;;;;;;;0.30;0.30;;;10.90;99.90;;;;;;5106068;28;20199;-76
2024/02/13 01:46:42;;;;;;;0.30;0.20;;;10.90;99.90;;;;;;5106088;27;20180;-77
2024/02/13 01:49:09;;;;;;;0.30;0.20;;;10.90;99.90;;;;;;5105631;28;20539;-76
2024/02/13 01:51:36;;;;;;;0.30;0.20;;;10.90;99.90;;;;;;5107012;28;20668;-76
2024/02/13 01:54:04;;;;;;;0.30;0.20;;;10.80;99.90;;;;;;5106578;28;20230;-76
2024/02/13 01:56:33;;;;;;;1.20;1.10;;;10.80;99.90;;;;;;5106090;28;20176;-76
2024/02/13 01:58:59;;;;;;;0.30;0.20;;;10.80;99.90;;;;;;5107040;28;20293;-76
2024/02/13 02:01:27;;;;;;;0.30;0.20;;;10.80;99.90;;;;;;5105248;28;20199;-77
2024/02/13 02:03:54;;;;;;;1.20;1.20;;;10.80;99.90;;;;;;5107011;28;20200;-76
2024/02/13 02:06:20;;;;;;;0.40;0.40;;;10.70;99.90;;;;;;5105823;28;20737;-76
2024/02/13 02:08:47;;;;;;;0.30;0.20;;;10.80;99.90;;;;;;5106857;28;20275;-76
2024/02/13 02:11:13;;;;;;;0.30;0.20;;;10.80;99.90;;;;;;5105686;28;20829;-76
2024/02/13 02:13:40;;;;;;;0.43;0.20;;;10.70;99.90;;;;;;5105029;28;20233;-76
2024/02/13 02:16:07;;;;;;;0.30;0.20;;;10.70;99.90;;;;;;5106485;28;20281;-77
2024/02/13 02:18:32;;;;;;;0.30;0.20;;;10.70;99.90;;;;;;5105952;28;20207;-76
2024/02/13 02:20:58;;;;;;;0.30;0.20;;;10.70;99.90;;;;;;5106327;28;20213;-76
2024/02/13 02:23:24;;;;;;;0.30;0.20;;;10.70;99.90;;;;;;5106678;28;20440;-76
2024/02/13 02:25:53;;;;;;;0.30;0.20;;;10.60;99.90;;;;;;5106715;28;20199;-77
2024/02/13 02:28:19;;;;;;;0.30;0.20;;;10.70;99.90;;;;;;5105020;28;20200;-76
2024/02/13 02:30:46;;;;;;;0.30;0.20;;;10.70;99.90;;;;;;5104340;28;20176;-76
2024/02/13 02:33:12;;;;;;;0.30;0.20;;;10.60;99.90;;;;;;5104556;28;20223;-76
2024/02/13 02:35:41;;;;;;;0.30;0.20;;;10.60;99.90;;;;;;5105273;28;20201;-75
2024/02/13 02:38:09;;;;;;;0.30;0.20;;;10.60;99.90;;;;;;5106485;28;20606;-76
2024/02/13 02:40:36;;;;;;;0.30;0.20;;;10.60;99.90;;;;;;5106163;28;20263;-76
2024/02/13 02:43:02;;;;;;;0.30;0.20;;;10.60;99.90;;;;;;5106120;28;20759;-76
2024/02/13 02:45:28;;;;;;;8.07;6.65;;;10.50;99.90;;;;;;5104570;28;20641;-77
2024/02/13 02:47:53;;;;;;;0.30;0.20;;;10.50;99.90;;;;;;5106149;28;20244;-76
2024/02/13 02:50:19;;;;;;;0.30;0.20;;;10.50;99.90;;;;;;5106082;28;20530;-76
2024/02/13 02:52:45;;;;;;;0.30;0.20;;;10.50;99.90;;;;;;5105422;28;20279;-76
2024/02/13 02:55:11;;;;;;;0.30;0.20;;;10.50;99.90;;;;;;5104679;28;20175;-76
2024/02/13 02:57:37;;;;;;;0.30;0.20;;;10.40;99.90;;;;;;5105967;28;20976;-77
2024/02/13 03:00:06;;;;;;;0.30;0.20;;;10.40;99.90;;;;;;5104312;28;20167;-76
2024/02/13 03:02:32;;;;;;;0.30;0.20;;;10.40;99.90;;;;;;5104685;28;20176;-76
2024/02/13 03:04:59;;;;;;;0.30;0.20;;;10.40;99.90;;;;;;5104266;28;20274;-76
2024/02/13 03:07:24;;;;;;;0.30;0.20;;;10.40;99.90;;;;;;5105613;28;20412;-76
2024/02/13 03:09:50;;;;;;;0.30;0.20;;;10.30;99.90;;;;;;5103659;28;20175;-76
2024/02/13 03:12:16;;;;;;;0.60;0.60;;;10.30;99.90;;;;;;5105602;28;20847;-76
2024/02/13 03:14:42;;;;;;;0.30;0.20;;;10.30;99.90;;;;;;5105956;28;20801;-76
2024/02/13 03:17:11;;;;;;;0.30;0.20;;;10.30;99.90;;;;;;5105552;28;20489;-76
2024/02/13 03:19:37;;;;;;;0.30;0.20;;;10.20;99.90;;;;;;5104109;28;20208;-76
2024/02/13 03:22:03;;;;;;;0.30;0.20;;;10.20;99.90;;;;;;5104452;28;20626;-76
2024/02/13 03:24:28;;;;;;;0.30;0.20;;;10.20;99.90;;;;;;5105507;28;20422;-76
2024/02/13 03:26:55;;;;;;;0.30;0.20;;;10.20;99.90;;;;;;5105690;28;20655;-76
2024/02/13 03:29:21;;;;;;;0.30;0.20;;;10.20;99.90;;;;;;5104085;28;20758;-75
2024/02/13 03:31:47;;;;;;;0.30;0.20;;;10.10;99.90;;;;;;5104442;28;20256;-76
2024/02/13 03:34:12;;;;;;;0.30;0.20;;;10.10;99.90;;;;;;5105090;28;20660;-76
2024/02/13 03:36:38;;;;;;;0.30;0.20;;;10.10;99.90;;;;;;5105314;28;20460;-76
2024/02/13 03:39:06;;;;;;;0.30;0.20;;;10.10;99.90;;;;;;5103749;28;20264;-76
2024/02/13 03:41:32;;;;;;;0.30;0.20;;;10.00;99.90;;;;;;5105135;28;20175;-76
2024/02/13 03:43:57;;;;;;;0.30;0.20;;;10.00;99.90;;;;;;5104986;28;20289;-76
2024/02/13 03:46:23;;;;;;;0.30;0.20;;;10.00;99.90;;;;;;5103700;28;20265;-76
2024/02/13 03:48:49;;;;;;;0.30;0.20;;;10.00;99.90;;;;;;5105185;28;20210;-76
2024/02/13 03:51:14;;;;;;;0.30;0.20;;;10.00;99.90;;;;;;5105049;28;20262;-75
2024/02/13 03:53:40;;;;;;;0.30;0.20;;;10.00;99.90;;;;;;5104763;28;20555;-77
2024/02/13 03:56:06;;;;;;;0.30;0.20;;;10.00;99.90;;;;;;5104549;28;20218;-76
2024/02/13 03:58:32;;;;;;;0.30;0.20;;;10.00;99.90;;;;;;5103751;28;20203;-76
2024/02/13 04:00:58;;;;;;;0.30;0.30;;;10.00;99.90;;;;;;5104575;28;20168;-76
2024/02/13 04:03:26;;;;;;;0.30;0.20;;;10.00;99.90;;;;;;5105170;28;20337;-76
2024/02/13 04:05:52;;;;;;;0.30;0.20;;;10.10;99.90;;;;;;5104029;28;20186;-77
2024/02/13 04:08:18;;;;;;;0.30;0.20;;;10.20;99.90;;;;;;5103109;28;20562;-76
2024/02/13 04:10:44;;;;;;;0.30;0.20;;;10.20;99.90;;;;;;5103504;28;20235;-76
2024/02/13 04:13:09;;;;;;;0.30;0.20;;;10.20;99.90;;;;;;5103221;28;20223;-76
2024/02/13 04:15:38;;;;;;;0.30;0.20;;;10.20;99.90;;;;;;5104667;28;20708;-76
2024/02/13 04:18:04;;;;;;;0.30;0.20;;;10.30;99.90;;;;;;5104916;28;20487;-76
2024/02/13 04:20:30;;;;;;;0.30;0.20;;;10.30;99.90;;;;;;5104965;28;20203;-77
2024/02/13 04:22:55;;;;;;;0.30;0.20;;;10.40;99.90;;;;;;5107671;28;20230;-76
2024/02/13 04:25:22;;;;;;;0.30;0.20;;;10.40;99.90;;;;;;5108855;28;20184;-76
2024/02/13 04:27:47;;;;;;;0.30;0.20;;;10.50;99.90;;;;;;5108511;27;20202;-75
2024/02/13 04:30:13;;;;;;;0.30;0.20;;;10.50;99.90;;;;;;5107535;28;20179;-76
2024/02/13 04:32:40;;;;;;;0.30;0.20;;;10.50;99.90;;;;;;5106314;28;20215;-76
2024/02/13 04:35:07;;;;;;;0.30;0.20;;;10.60;99.90;;;;;;5107323;28;20408;-76
2024/02/13 04:37:34;;;;;;;0.30;0.20;;;10.60;99.90;;;;;;5108468;28;20680;-76
2024/02/13 04:39:59;;;;;;;0.30;0.20;;;10.60;99.90;;;;;;5107519;28;20713;-76
2024/02/13 04:42:36;;;;;;;0.30;0.20;;;10.70;99.90;;;;;;5108663;28;20203;-76
2024/02/13 04:45:03;;;;;;;0.30;0.20;;;10.70;99.90;;;;;;5108327;28;20682;-76
2024/02/13 04:47:32;;;;;;;0.30;0.20;;;10.80;99.90;;;;;;5108499;28;20194;-76
2024/02/13 04:50:00;;;;;;;0.30;0.20;;;10.80;99.90;;;;;;5108422;28;20176;-77
2024/02/13 04:52:27;;;;;;;0.40;0.40;;;10.90;99.90;;;;;;5107941;28;20459;-78
2024/02/13 04:54:58;;;;;;;0.30;0.20;;;11.00;99.90;;;;;;5106805;28;20180;-79
2024/02/13 04:57:24;;;;;;;0.30;0.30;;;11.00;99.90;;;;;;5107103;27;20183;-79
2024/02/13 04:59:50;;;;;;;0.30;0.20;;;11.00;99.90;;;;;;5106096;28;20198;-77
2024/02/13 05:02:18;;;;;;;0.30;0.20;;;11.00;99.90;;;;;;5101700;28;20191;-78
2024/02/13 05:07:29;;;;;;;0.35;0.35;;;11.00;99.90;;;;;;5108160;28;20656;-78
2024/02/13 05:09:58;;;;;;;0.30;0.20;;;11.10;99.90;;;;;;5106543;28;20180;-77
2024/02/13 05:12:27;;;;;;;0.30;0.20;;;11.10;99.90;;;;;;5106244;28;20570;-78
2024/02/13 05:14:53;;;;;;;0.30;0.20;;;11.10;99.90;;;;;;5106342;28;20178;-78
2024/02/13 05:17:20;;;;;;;0.30;0.20;;;11.20;99.90;;;;;;5107656;28;20176;-77
2024/02/13 05:19:48;;;;;;;0.30;0.20;;;11.20;99.90;;;;;;5104909;28;20279;-77
2024/02/13 05:22:15;;;;;;;0.30;0.20;;;11.20;99.90;;;;;;5107716;28;20451;-78
2024/02/13 05:24:41;;;;;;;0.30;0.20;;;11.10;99.90;;;;;;5107224;27;20561;-79
2024/02/13 05:27:10;;;;;;;0.30;0.20;;;11.20;99.90;;;;;;5105682;28;20172;-79
2024/02/13 05:29:38;;;;;;;0.30;0.20;;;11.10;99.90;;;;;;5101936;28;20204;-77
2024/02/13 05:32:05;;;;;;;0.30;0.20;;;11.20;99.90;;;;;;5103397;28;20230;-78
2024/02/13 05:34:32;;;;;;;0.30;0.20;;;11.10;99.90;;;;;;5102573;28;20219;-77
2024/02/13 05:36:58;;;;;;;0.30;0.20;;;11.10;99.90;;;;;;5098493;28;20665;-78
2024/02/13 05:39:30;;;;;;;0.30;0.20;;;11.10;99.90;;;;;;5095817;28;20212;-78
2024/02/13 05:41:57;;;;;;;0.30;0.20;;;11.20;99.90;;;;;;5101102;28;20191;-76
2024/02/13 05:44:27;;;;;;;0.30;0.20;;;11.20;99.90;;;;;;5097325;28;20218;-77
2024/02/13 05:46:55;;;;;;;0.30;0.20;;;11.20;99.90;;;;;;5098541;28;20198;-76
2024/02/13 05:49:21;;;;;;;0.30;0.20;;;11.20;99.90;;;;;;5102483;28;20208;-79
2024/02/13 05:51:48;;;;;;;0.30;0.20;;;11.30;99.90;;;;;;5097388;28;20563;-79
2024/02/13 05:54:15;;;;;;;0.30;0.20;;;11.30;99.90;;;;;;5099029;28;20208;-77
2024/02/13 05:56:41;;;;;;;0.30;0.20;;;11.40;99.90;;;;;;5087041;28;20215;-81
2024/02/13 05:59:09;;;;;;;0.30;0.20;;;11.40;99.90;;;;;;5085150;28;20697;-76
2024/02/13 06:01:35;;;;;;;0.30;0.20;;;11.40;99.90;;;;;;5092303;28;20228;-75
2024/02/13 06:04:03;;;;;;;0.30;0.20;;;11.40;99.90;;;;;;5106428;28;20195;-75
2024/02/13 06:06:29;;;;;;;0.30;0.20;;;11.40;99.90;;;;;;5110273;27;20225;-79
2024/02/13 06:08:56;;;;;;;0.30;0.20;;;11.40;99.90;;;;;;5105498;28;20203;-76
2024/02/13 06:11:23;;;;;;;0.30;0.20;;;11.40;99.90;;;;;;5104542;28;20581;-79
2024/02/13 06:13:49;;;;;;;0.30;0.20;;;11.40;99.90;;;;;;5112286;27;20219;-81
2024/02/13 06:16:19;;;;;;;0.30;0.20;;;11.30;99.90;;;;;;5103961;28;20190;-79
2024/02/13 06:18:47;;;;;;;0.30;0.20;;;11.10;99.90;;;;;;5104527;28;20407;-75
2024/02/13 06:21:18;;;;;;;0.50;0.50;;;10.90;99.90;;;;;;5102927;28;20648;-75
2024/02/13 06:23:47;;;;;;;0.30;0.20;;;10.70;99.90;;;;;;5102666;28;20214;-75
2024/02/13 06:26:13;;;;;;;0.30;0.20;;;10.60;99.90;;;;;;5102711;28;20315;-78
2024/02/13 06:28:39;;;;;;;0.30;0.20;;;10.50;99.90;;;;;;5121437;27;20191;-75
2024/02/13 06:31:06;;;;;;;0.30;0.20;;;10.40;99.90;;;;;;5113945;27;20191;-75
2024/02/13 06:33:31;;;;;;;0.30;0.20;;;10.40;99.90;;;;;;5103393;28;20289;-76
2024/02/13 06:35:58;;;;;;;2.50;2.30;;;10.30;99.90;;;;;;5103949;28;20172;-74
2024/02/13 06:38:24;;;;;;;0.30;0.20;;;10.20;99.90;;;;;;5110489;27;20488;-74
2024/02/13 06:40:52;;;;;;;0.30;0.20;;;10.20;99.90;;;;;;5097993;28;20211;-76
2024/02/13 06:43:19;;;;;;;0.30;0.20;;;10.20;99.90;;;;;;5102496;27;20556;-74
2024/02/13 06:45:45;;;;;;;0.30;0.20;;;10.10;99.90;;;;;;5097857;28;20188;-74
2024/02/13 06:48:11;;;;;;;0.30;0.20;;;10.10;99.90;;;;;;5113096;27;20203;-74
2024/02/13 06:50:37;;;;;;;0.30;0.20;;;10.10;99.90;;;;;;5093188;28;20708;-76
2024/02/13 06:53:03;;;;;;;0.30;0.20;;;10.10;99.90;;;;;;5097381;28;20483;-76
2024/02/13 06:55:29;;;;;;;0.30;0.20;;;10.00;99.90;;;;;;5095175;28;20229;-76
2024/02/13 06:57:54;;;;;;;0.30;0.20;;;10.00;99.90;;;;;;5102358;28;20214;-76
2024/02/13 07:00:20;;;;;;;0.30;0.20;;;10.00;99.90;;;;;;5098774;28;20179;-76
2024/02/13 07:02:47;;;;;;;0.30;0.20;;;10.00;99.90;;;;;;5110834;27;20211;-74
2024/02/13 07:05:13;;;;;;;0.30;0.20;;;10.00;99.90;;;;;;5098846;28;20269;-74
2024/02/13 07:07:39;;;;;;;0.30;0.20;;;10.00;99.90;;;;;;5111727;27;20203;-76
2024/02/13 07:10:05;;;;;;;0.30;0.20;;;10.00;99.90;;;;;;5100536;28;20450;-74
2024/02/13 07:12:31;;;;;;;0.30;0.20;;;9.90;99.90;;;;;;5098449;28;20231;-76
2024/02/13 07:14:57;;;;;;;0.30;0.20;;;10.00;99.90;;;;;;5100767;28;20180;-77
2024/02/13 07:17:23;;;;;;;0.30;0.20;;;10.00;99.90;;;;;;5101385;27;20217;-76
2024/02/13 07:19:50;;;;;;;0.30;0.20;;;10.00;99.90;;;;;;5098748;28;20866;-74
2024/02/13 07:22:17;;;;;;;0.30;0.20;;;10.00;99.90;;;;;;5100476;28;20427;-74
2024/02/13 07:24:43;;;;;;;0.30;0.20;;;10.00;99.90;;;;;;5100175;28;20656;-77
2024/02/13 07:27:09;;;;;;;0.30;0.20;;;10.00;99.90;;;;;;5096834;28;20194;-75
2024/02/13 07:29:39;;;;;;;0.30;0.20;;;10.00;99.90;;;;;;5097714;28;20412;-74
2024/02/13 07:32:07;;;;;;;0.30;0.20;;;10.00;99.90;;;;;;5098830;28;20215;-74
2024/02/13 07:34:37;;;;;;;0.30;0.20;;;10.00;99.90;;;;;;5099719;28;20274;-77
2024/02/13 07:37:03;;;;;;;0.30;0.20;;;10.00;99.90;;;;;;5101214;28;20179;-77
2024/02/13 07:39:29;;;;;;;0.30;0.20;;;10.00;99.90;;;;;;5099845;28;20482;-74
2024/02/13 07:41:55;;;;;;;0.30;0.20;;;10.10;99.90;;;;;;5100087;28;20207;-76
2024/02/13 07:44:20;;;;;;;0.30;0.20;;;10.10;99.90;;;;;;5099107;28;20199;-77
2024/02/13 07:46:46;;;;;;;0.30;0.20;;;10.10;99.90;;;;;;5108121;27;20661;-76
2024/02/13 07:49:12;;;;;;;0.30;0.20;;;10.10;99.90;;;;;;5099711;28;20818;-77
2024/02/13 07:51:37;;;;;;;0.30;0.20;;;10.20;99.90;;;;;;5094249;28;20189;-75
2024/02/13 07:54:04;;;;;;;0.30;0.20;;;10.20;99.90;;;;;;5094603;28;20247;-75
2024/02/13 07:56:30;;;;;;;0.30;0.20;;;10.30;99.90;;;;;;5117603;27;20606;-74
2024/02/13 07:58:59;;;;;;;0.30;0.20;;;10.30;99.90;;;;;;5108829;27;20233;-74
2024/02/13 08:01:25;;;;;;;0.30;0.20;;;10.40;99.90;;;;;;5092801;28;20453;-74
2024/02/13 08:03:52;;;;;;;0.30;0.20;;;10.40;99.90;;;;;;5100690;28;20203;-75
2024/02/13 08:06:18;;;;;;;0.30;0.20;;;10.40;99.90;;;;;;5100527;28;20249;-75
2024/02/13 08:08:46;;;;;;;0.30;0.20;;;10.50;99.90;;;;;;5097448;28;20199;-75
2024/02/13 08:11:13;;;;;;;0.30;0.20;;;10.50;99.90;;;;;;5097273;28;20479;-79
2024/02/13 08:13:39;;;;;;;0.30;0.20;;;10.60;99.90;;;;;;5099336;28;20830;-77
2024/02/13 08:16:06;;;;;;;0.30;0.20;;;10.60;99.90;;;;;;5096799;28;20184;-74
2024/02/13 08:18:34;;;;;;;0.40;0.20;;;10.70;99.90;;;;;;5093914;28;20215;-77
2024/02/13 08:21:04;;;;;;;0.30;0.20;;;10.70;99.90;;;;;;5098742;28;20179;-77
2024/02/13 08:23:30;;;;;;;0.30;0.20;;;10.70;99.90;;;;;;5108221;28;20200;-79
2024/02/13 08:25:55;;;;;;;0.30;0.20;;;10.80;99.90;;;;;;5098554;28;20209;-74
2024/02/13 08:28:22;;;;;;;0.60;0.60;;;10.80;99.90;;;;;;5100791;28;20207;-76
2024/02/13 08:30:48;;;;;;;0.30;0.20;;;10.90;99.90;;;;;;5097800;28;20192;-76
2024/02/13 08:33:15;;;;;;;0.30;0.20;;;10.90;99.90;;;;;;5096830;28;20411;-74
2024/02/13 08:35:42;;;;;;;0.30;0.20;;;11.00;99.90;;;;;;5098232;28;20176;-77
2024/02/13 08:38:08;;;;;;;0.30;0.20;;;10.90;99.90;;;;;;5097454;28;20628;-76
2024/02/13 08:40:34;;;;;;;0.30;0.20;;;11.00;99.90;;;;;;5099405;28;20755;-77
2024/02/13 08:43:00;;;;;;;0.40;0.20;;;11.00;99.90;;;;;;5097017;28;20203;-79
2024/02/13 08:45:25;;;;;;;0.30;0.30;;;11.10;99.90;;;;;;5099905;28;20180;-78
2024/02/13 08:47:51;;;;;;;0.30;0.20;;;11.10;99.90;;;;;;5098603;28;20279;-78
2024/02/13 08:50:17;;;;;;;0.30;0.20;;;11.20;99.90;;;;;;5100925;28;20176;-76
2024/02/13 08:52:43;;;;;;;0.30;0.20;;;11.30;99.90;;;;;;5104698;28;20234;-79
2024/02/13 08:55:09;;;;;;;0.30;0.20;;;11.40;99.90;;;;;;5098332;28;20593;-75
2024/02/13 08:57:35;;;;;;;0.30;0.20;;;11.50;99.90;;;;;;5094030;28;20456;-79
2024/02/13 09:00:02;;;;;;;0.30;0.20;;;11.70;99.90;;;;;;5096862;28;20408;-76
2024/02/13 09:02:28;;;;;;;0.50;0.50;;;11.80;99.90;;;;;;5097005;28;20454;-78
2024/02/13 09:04:53;;;;;;;0.30;0.20;;;11.90;99.90;;;;;;5097689;28;20432;-78
2024/02/13 09:07:19;;;;;;;0.30;0.20;;;12.10;99.90;;;;;;5097044;28;20346;-79
2024/02/13 09:09:45;;;;;;;1.07;0.97;;;12.20;99.90;;;;;;5094391;28;20325;-77
2024/02/13 09:12:11;;;;;;;0.50;0.50;;;12.40;99.90;;;;;;5100141;28;20726;-76
2024/02/13 09:14:37;;;;;;;0.30;0.27;;;12.50;99.90;;;;;;5105014;27;20338;-78
2024/02/13 09:17:03;;;;;;;0.30;0.20;;;12.70;99.90;;;;;;5100381;28;20789;-77
2024/02/13 09:19:29;;;;;;;0.30;0.20;;;12.80;99.90;;;;;;5100853;28;20558;-75
2024/02/13 09:21:55;;;;;;;0.30;0.20;;;13.00;99.90;;;;;;5096908;28;20207;-75
2024/02/13 09:24:23;;;;;;;0.30;0.20;;;13.20;99.90;;;;;;5097034;28;21221;-80
2024/02/13 09:26:51;;;;;;;0.30;0.20;;;13.60;99.90;;;;;;5095903;28;20187;-76
2024/02/13 09:29:18;;;;;;;0.40;0.20;;;14.10;99.90;;;;;;5100515;27;20495;-75
2024/02/13 09:31:44;;;;;;;0.30;0.20;;;14.80;99.90;;;;;;5099765;27;20518;-80
2024/02/13 09:34:12;;;;;;;0.40;0.40;;;15.20;99.90;;;;;;5104380;27;20571;-80
2024/02/13 09:36:38;;;;;;;0.30;0.20;;;15.60;99.90;;;;;;5099468;28;20180;-81
2024/02/13 09:39:04;;;;;;;0.40;0.20;;;16.20;99.90;;;;;;5102843;28;20802;-81
2024/02/13 09:41:31;;;;;;;0.30;0.20;;;16.60;99.90;;;;;;5100290;28;20428;-80
2024/02/13 09:43:57;;;;;;;0.97;0.77;;;16.80;99.90;;;;;;5104448;27;20461;-80
2024/02/13 09:46:24;;;;;;;0.30;0.30;;;17.00;99.90;;;;;;5100772;28;21197;-81
2024/02/13 09:48:54;;;;;;;0.40;0.20;;;17.20;99.90;;;;;;5100815;28;20463;-75
2024/02/13 09:51:21;;;;;;;0.30;0.20;;;17.40;99.90;;;;;;5103118;28;21168;-75
2024/02/13 09:53:47;;;;;;;0.30;0.20;;;17.70;99.90;;;;;;5100248;28;20499;-81
2024/02/13 09:56:14;;;;;;;0.30;0.20;;;17.80;99.90;;;;;;5100712;28;20415;-77
2024/02/13 09:58:41;;;;;;;0.30;0.20;;;18.00;99.90;;;;;;5099251;28;20519;-81
2024/02/13 10:01:07;;;;;;;0.53;0.47;;;18.50;99.90;;;;;;5099550;28;20438;-75
2024/02/13 10:03:36;;;;;;;0.30;0.30;;;19.00;99.90;;;;;;5096791;28;20631;-81
2024/02/13 10:06:03;;;;;;;0.40;0.20;;;19.70;99.90;;;;;;5092421;28;20424;-80
2024/02/13 10:08:30;;;;;;;0.40;0.20;;;20.20;99.90;;;;;;5103458;27;21449;-75
2024/02/13 10:11:16;;;;;;;0.30;0.20;;;20.40;99.90;;;;;;5093628;28;20973;-76
2024/02/13 10:13:42;;;;;;;0.30;0.20;;;20.30;99.90;;;;;;5090417;28;20495;-75
2024/02/13 10:16:19;;;;;;;0.30;0.20;;;20.00;99.00;;;;;;5096913;28;20415;-80
2024/02/13 10:18:48;;;;;;;0.30;0.20;;;19.50;98.80;;;;;;5098443;28;20447;-80
2024/02/13 10:21:14;;;;;;;0.30;0.30;;;19.10;99.00;;;;;;5096360;28;20416;-75
2024/02/13 10:23:40;;;;;;;0.30;0.30;;;18.80;99.00;;;;;;5099485;28;20505;-75
2024/02/13 10:26:10;;;;;;;0.30;0.20;;;18.40;99.90;;;;;;5097880;28;20186;-75
2024/02/13 10:28:43;;;;;;;0.40;0.30;;;18.10;99.90;;;;;;5104394;27;20414;-75
2024/02/13 10:31:09;;;;;;;0.30;0.20;;;17.80;99.90;;;;;;5111892;27;20421;-82
2024/02/13 10:33:42;;;;;;;0.30;0.20;;;17.80;99.90;;;;;;5093780;28;20611;-75
2024/02/13 10:36:08;;;;;;;0.30;0.20;;;17.70;99.90;;;;;;5097002;28;20589;-80
2024/02/13 10:38:36;;;;;;;0.30;0.30;;;17.40;99.90;;;;;;5097267;28;20483;-75
2024/02/13 10:41:08;;;;;;;0.30;0.20;;;17.30;99.90;;;;;;5098006;28;20489;-75
2024/02/13 10:43:34;;;;;;;0.30;0.20;;;17.10;99.90;;;;;;5101997;27;21064;-80
2024/02/13 10:46:06;;;;;;;1.50;1.23;;;17.00;99.90;;;;;;5099093;28;20451;-79
2024/02/13 10:48:51;;;;;;;0.50;0.50;;;17.00;99.90;;;;;;5096586;28;20981;-75
2024/02/13 10:51:18;;;;;;;0.53;0.40;;;17.00;99.90;;;;;;5099908;27;20972;-81
2024/02/13 10:53:49;;;;;;;0.30;0.30;;;17.10;99.90;;;;;;5098927;28;20496;-75
2024/02/13 10:56:15;;;;;;;0.30;0.20;;;17.00;99.90;;;;;;5097013;28;20450;-80
2024/02/13 10:58:43;;;;;;;0.30;0.20;;;16.90;99.90;;;;;;5100032;28;20445;-79
2024/02/13 11:01:15;;;;;;;0.30;0.20;;;16.90;99.90;;;;;;5099557;28;20194;-80
2024/02/13 11:03:42;;;;;;;0.40;0.30;;;16.90;99.90;;;;;;5114031;27;20457;-80
2024/02/13 11:06:10;;;;;;;0.30;0.20;;;16.80;99.90;;;;;;5092176;28;20410;-80
2024/02/13 11:08:36;;;;;;;0.30;0.20;;;16.70;99.90;;;;;;5086835;28;20513;-80
2024/02/13 11:11:13;;;;;;;0.30;0.30;;;16.60;99.90;;;;;;5109453;27;20834;-81
2024/02/13 11:13:39;;;;;;;1.90;1.57;;;16.50;99.90;;;;;;5103074;28;20833;-75
2024/02/13 11:16:05;;;;;;;0.30;0.20;;;16.40;99.90;;;;;;5110480;27;20432;-76
2024/02/13 11:18:34;;;;;;;0.40;0.20;;;16.40;99.90;;;;;;5094154;28;20453;-75
2024/02/13 11:21:01;;;;;;;0.30;0.20;;;16.50;99.90;;;;;;5098188;28;20495;-75
2024/02/13 11:23:28;;;;;;;0.30;0.20;;;16.50;99.90;;;;;;5096780;28;20843;-81
2024/02/13 11:25:59;;;;;;;0.40;0.40;;;16.70;99.90;;;;;;5088363;28;20520;-81
2024/02/13 11:28:32;;;;;;;0.30;0.20;;;16.70;99.90;;;;;;5097191;28;20787;-77
2024/02/13 11:30:57;;;;;;;0.70;0.70;;;16.80;99.90;;;;;;5092104;28;20478;-75
2024/02/13 11:33:23;;;;;;;0.30;0.20;;;16.80;99.90;;;;;;5095134;28;20481;-83
2024/02/13 11:35:56;;;;;;;0.30;0.20;;;16.80;99.90;;;;;;5099385;28;20558;-79
2024/02/13 11:38:26;;;;;;;0.30;0.20;;;16.90;99.90;;;;;;5099458;28;20274;-80
2024/02/13 11:40:54;;;;;;;0.70;0.70;;;17.00;99.90;;;;;;5094605;28;20434;-80
2024/02/13 11:43:30;;;;;;;3.60;2.73;;;17.00;99.90;;;;;;5091686;28;21109;-77
2024/02/13 11:46:03;;;;;;;0.30;0.20;;;17.00;99.90;;;;;;5093578;28;20417;-79
2024/02/13 11:48:30;;;;;;;0.30;0.20;;;17.10;99.90;;;;;;5089783;28;20462;-75
2024/02/13 11:50:56;;;;;;;0.30;0.20;;;17.20;99.90;;;;;;5090982;28;20744;-80
2024/02/13 11:53:22;;;;;;;0.40;0.40;;;17.40;99.70;;;;;;5090881;28;20555;-80
2024/02/13 11:55:49;;;;;;;1.43;1.33;;;17.40;99.90;;;;;;5088332;28;20420;-76
2024/02/13 11:58:22;;;;;;;0.40;0.40;;;17.40;99.20;;;;;;5122677;27;21201;-79
2024/02/13 12:01:03;;;;;;;0.30;0.20;;;17.40;99.00;;;;;;5092912;28;20446;-79
2024/02/13 12:03:35;;;;;;;0.40;0.30;;;17.30;98.80;;;;;;5093134;28;20544;-82
2024/02/13 12:06:05;;;;;;;0.93;0.93;;;17.30;98.80;;;;;;5090323;28;20412;-75
2024/02/13 12:08:35;;;;;;;0.77;0.77;;;17.30;99.30;;;;;;5093395;28;21014;-79
2024/02/13 12:11:02;;;;;;;0.30;0.20;;;17.30;99.20;;;;;;5115704;27;21147;-79
2024/02/13 12:13:30;;;;;;;0.50;0.40;;;17.40;99.60;;;;;;5094179;28;20579;-75
2024/02/13 12:15:58;;;;;;;0.70;0.53;;;17.50;99.20;;;;;;5093890;28;20465;-79
2024/02/13 12:18:32;;;;;;;1.50;1.50;;;17.60;98.20;;;;;;5088024;28;20461;-79
2024/02/13 12:20:59;;;;;;;0.30;0.20;;;17.60;98.80;;;;;;5092025;28;20402;-76
2024/02/13 12:23:25;;;;;;;0.40;0.30;;;17.70;98.40;;;;;;5085026;28;20484;-80
2024/02/13 12:26:01;;;;;;;0.30;0.20;;;17.70;97.70;;;;;;5096364;28;20436;-79
2024/02/13 12:28:28;;;;;;;0.30;0.20;;;17.60;97.50;;;;;;5097286;28;21128;-79
2024/02/13 12:30:55;;;;;;;0.30;0.20;;;17.50;97.10;;;;;;5095677;28;21084;-79
2024/02/13 12:33:23;;;;;;;0.30;0.20;;;17.40;97.00;;;;;;5094799;28;20489;-79
2024/02/13 12:36:07;;;;;;;0.40;0.30;;;17.20;96.80;;;;;;5093503;28;20883;-79
2024/02/13 12:38:37;;;;;;;0.30;0.20;;;17.10;96.90;;;;;;5092665;28;20495;-75
2024/02/13 12:41:04;;;;;;;0.30;0.20;;;16.90;97.20;;;;;;5088926;28;20431;-74
2024/02/13 12:43:30;;;;;;;0.30;0.20;;;16.80;97.30;;;;;;5093876;28;20509;-75
2024/02/13 12:46:06;;;;;;;0.30;0.20;;;16.60;97.30;;;;;;5090865;28;20428;-79
2024/02/13 12:48:36;;;;;;;0.40;0.20;;;16.40;97.30;;;;;;5089904;27;20988;-75
2024/02/13 12:51:02;;;;;;;0.40;0.20;;;16.20;98.20;;;;;;5094963;28;20476;-75